DEFMD EDDC-EDDN

Flight info

Callsign DEFMD
Flight time N/A
Altitude
Route
Aircraft DR400

Departure

Time 2026-05-01 08:53
Airport Dresden Airport (EDDC)

Arrival

Time N/A
Airport Nuremberg Airport (EDDN)
Time Latitude Longitude Altitude Speed Heading
2026-05-01 08:46 51.12706 13.76864 745 ft 0 kts 40°
2026-05-01 08:48 51.12723 13.76840 745 ft 7 kts 280°
2026-05-01 08:48 51.12699 13.76793 745 ft 5 kts 222°
2026-05-01 08:48 51.12678 13.76763 747 ft 5 kts 222°
2026-05-01 08:48 51.12653 13.76703 748 ft 7 kts 311°
2026-05-01 08:49 51.12687 13.76648 747 ft 8 kts 310°
2026-05-01 08:49 51.12733 13.76560 746 ft 13 kts 309°
2026-05-01 08:49 51.12802 13.76444 745 ft 16 kts 340°
2026-05-01 08:49 51.12903 13.76537 742 ft 20 kts 44°
2026-05-01 08:50 51.13011 13.76690 741 ft 22 kts 39°
2026-05-01 08:50 51.13138 13.76866 736 ft 26 kts 42°
2026-05-01 08:50 51.13283 13.77069 728 ft 29 kts 40°
2026-05-01 08:50 51.13446 13.77278 724 ft 30 kts 42°
2026-05-01 08:51 51.13581 13.77472 718 ft 25 kts 46°
2026-05-01 08:51 51.13716 13.77665 713 ft 20 kts 42°
2026-05-01 08:51 51.13789 13.77715 716 ft 3 kts 314°
2026-05-01 08:51 51.13809 13.77679 716 ft 10 kts 310°
2026-05-01 08:52 51.13868 13.77570 716 ft 14 kts 310°
2026-05-01 08:52 51.13914 13.77452 717 ft 7 kts 232°
2026-05-01 08:52 51.13753 13.77229 730 ft 56 kts 226°
2026-05-01 08:52 51.13397 13.76754 889 ft 68 kts 223°
2026-05-01 08:53 51.13162 13.76124 1117 ft 69 kts 262°
2026-05-01 08:53 51.13091 13.75361 1370 ft 69 kts 262°
2026-05-01 08:53 51.13001 13.74591 1607 ft 74 kts 264°
2026-05-01 08:53 51.12931 13.73746 1855 ft 79 kts 265°
2026-05-01 08:54 51.12864 13.72884 2130 ft 78 kts 268°
2026-05-01 08:54 51.12800 13.72023 2346 ft 80 kts 262°
2026-05-01 08:54 51.12676 13.71073 2458 ft 93 kts 263°
2026-05-01 08:54 51.12552 13.70054 2509 ft 97 kts 261°
2026-05-01 08:55 51.12411 13.68972 2461 ft 100 kts 262°
2026-05-01 08:55 51.12288 13.67891 2493 ft 100 kts 263°
2026-05-01 08:55 51.12192 13.66773 2542 ft 104 kts 262°
2026-05-01 08:55 51.12001 13.65667 2555 ft 106 kts 255°
2026-05-01 08:56 51.11805 13.64525 2471 ft 109 kts 257°
2026-05-01 08:56 51.11602 13.63389 2458 ft 105 kts 256°
2026-05-01 08:56 51.11387 13.62282 2456 ft 104 kts 257°
2026-05-01 08:56 51.11237 13.61161 2492 ft 105 kts 264°
2026-05-01 08:57 51.11157 13.60011 2455 ft 102 kts 271°
2026-05-01 08:57 51.11184 13.58882 2502 ft 103 kts 277°
2026-05-01 08:57 51.11206 13.57725 2469 ft 103 kts 272°
2026-05-01 08:57 51.11212 13.56597 2486 ft 102 kts 272°
2026-05-01 08:58 51.11158 13.55464 2466 ft 103 kts 263°
2026-05-01 08:58 51.11008 13.54343 2463 ft 104 kts 255°
2026-05-01 08:58 51.10728 13.53281 2450 ft 105 kts 241°
2026-05-01 08:58 51.10261 13.52411 2450 ft 104 kts 224°
2026-05-01 08:59 51.09710 13.51656 2500 ft 105 kts 219°
2026-05-01 08:59 51.09110 13.50967 2519 ft 106 kts 217°
2026-05-01 08:59 51.08491 13.50273 2510 ft 112 kts 217°
2026-05-01 08:59 51.07831 13.49564 2440 ft 117 kts 215°
2026-05-01 09:00 51.07144 13.48860 2481 ft 118 kts 214°
2026-05-01 09:00 51.06449 13.48164 2480 ft 120 kts 211°
2026-05-01 09:00 51.05707 13.47567 2460 ft 120 kts 205°
2026-05-01 09:00 51.04927 13.47067 2409 ft 122 kts 201°
2026-05-01 09:01 51.04145 13.46613 2462 ft 121 kts 202°
2026-05-01 09:01 51.03327 13.46139 2446 ft 127 kts 196°
2026-05-01 09:01 51.02466 13.45902 2507 ft 122 kts 187°
2026-05-01 09:01 51.01667 13.45789 2756 ft 110 kts 182°
2026-05-01 09:02 51.00874 13.45763 2874 ft 116 kts 179°
2026-05-01 09:02 51.00050 13.45714 2869 ft 118 kts 185°
2026-05-01 09:02 50.99236 13.45557 2937 ft 115 kts 187°
2026-05-01 09:02 50.98425 13.45396 2896 ft 117 kts 186°
2026-05-01 09:03 50.97637 13.45262 3086 ft 110 kts 184°
2026-05-01 09:03 50.96882 13.45278 3282 ft 110 kts 182°
2026-05-01 09:03 50.96142 13.45113 3434 ft 105 kts 188°
2026-05-01 09:03 50.95425 13.44930 3507 ft 107 kts 186°
2026-05-01 09:04 50.94688 13.44698 3583 ft 106 kts 192°
2026-05-01 09:04 50.93967 13.44474 3703 ft 107 kts 189°
2026-05-01 09:04 50.93232 13.44161 3926 ft 112 kts 198°
2026-05-01 09:04 50.92447 13.43793 3944 ft 121 kts 194°
2026-05-01 09:05 50.91619 13.43456 3951 ft 123 kts 193°
2026-05-01 09:05 50.90804 13.43085 3952 ft 123 kts 196°
2026-05-01 09:05 50.90014 13.42521 3982 ft 125 kts 215°
2026-05-01 09:05 50.89445 13.41436 3931 ft 134 kts 250°
2026-05-01 09:06 50.89348 13.40015 3933 ft 126 kts 276°
2026-05-01 09:06 50.89462 13.38670 3882 ft 122 kts 287°
2026-05-01 09:06 50.89684 13.37387 3850 ft 121 kts 289°
2026-05-01 09:06 50.89937 13.36098 3832 ft 125 kts 290°
2026-05-01 09:07 50.90201 13.34792 3758 ft 127 kts 294°
2026-05-01 09:07 50.90515 13.33461 3610 ft 131 kts 294°
2026-05-01 09:07 50.90853 13.32107 3394 ft 133 kts 294°
2026-05-01 09:07 50.91273 13.30848 3241 ft 123 kts 304°
2026-05-01 09:08 50.91715 13.29847 3083 ft 102 kts 312°
2026-05-01 09:08 50.92202 13.29063 2937 ft 98 kts 319°
2026-05-01 09:08 50.92706 13.28339 2699 ft 101 kts 323°
2026-05-01 09:08 50.93273 13.27657 2554 ft 98 kts 327°
2026-05-01 09:09 50.93826 13.27331 2559 ft 78 kts
2026-05-01 09:09 50.94259 13.27702 2507 ft 67 kts 41°
2026-05-01 09:09 50.94570 13.28228 2496 ft 66 kts 52°
2026-05-01 09:09 50.94845 13.28793 2522 ft 64 kts 51°
2026-05-01 09:10 50.95125 13.29363 2532 ft 65 kts 53°
2026-05-01 09:10 50.95456 13.29817 2565 ft 63 kts 13°
2026-05-01 09:10 50.95870 13.29627 2584 ft 66 kts 330°
2026-05-01 09:10 50.96156 13.29048 2518 ft 71 kts 282°
2026-05-01 09:11 50.95985 13.28298 2248 ft 81 kts 229°
2026-05-01 09:11 50.95618 13.27631 1873 ft 76 kts 230°
2026-05-01 09:11 50.95272 13.26997 1465 ft 77 kts 231°
2026-05-01 09:11 50.94960 13.26390 1265 ft 53 kts 236°
2026-05-01 09:12 50.94804 13.26062 1272 ft 26 kts 233°
2026-05-01 09:12 50.94610 13.25671 1283 ft 67 kts 236°
2026-05-01 09:12 50.94294 13.25017 1442 ft 77 kts 234°
2026-05-01 09:12 50.94131 13.24739 1487 ft 85 kts 225°